Joggins, Canada
Current Conditions -  °F | °C
As of 9:00 AM on Saturday 25 Oct 2014 (Local Time) from CYQM Reporting Station
Drizzle Drizzle  
Wind Chill: 40°   Ceiling: 600
Heat Index: 46°   Visibility: 1.5mi
Dew Point: 45°   Wind: 15mph
Humidity: 93%   Direction: 360°N
Pressure: 29.51"   Gusts: NA
Location:  45.7°N, 64.43°W
Report Text: CYQM 251200Z 36013KT 1 1/2SM -DZ BR BKN006 OVC016 08/07 A2951 RMK SF7SC1 SLP995
Loading
Personal Weather Stations






























Interactive Weather Map
Tropical Storm Tracking
New forecast layout! Learn more

10-Day Weather Forecast

Advertisements
Track Severe Weather on mobile